sensor_id;sensor_type;location;lat;lon;timestamp;P1;durP1;ratioP1;P2;durP2;ratioP2
24151;SDS011;12311;50.866;4.332;2024-02-28T00:00:00;16.20;;;6.32;;
24151;SDS011;12311;50.866;4.332;2024-02-28T00:02:26;14.90;;;6.32;;
24151;SDS011;12311;50.866;4.332;2024-02-28T00:04:53;18.08;;;7.00;;
24151;SDS011;12311;50.866;4.332;2024-02-28T00:07:18;16.77;;;7.05;;
24151;SDS011;12311;50.866;4.332;2024-02-28T00:09:44;18.48;;;6.72;;
24151;SDS011;12311;50.866;4.332;2024-02-28T00:12:10;16.92;;;6.78;;
24151;SDS011;12311;50.866;4.332;2024-02-28T00:14:35;13.75;;;6.75;;
24151;SDS011;12311;50.866;4.332;2024-02-28T00:17:01;16.60;;;7.60;;
24151;SDS011;12311;50.866;4.332;2024-02-28T00:19:27;14.18;;;6.90;;
24151;SDS011;12311;50.866;4.332;2024-02-28T00:21:52;16.80;;;6.72;;
24151;SDS011;12311;50.866;4.332;2024-02-28T00:24:18;17.50;;;7.28;;
24151;SDS011;12311;50.866;4.332;2024-02-28T00:26:43;17.63;;;7.35;;
24151;SDS011;12311;50.866;4.332;2024-02-28T00:29:09;18.58;;;7.20;;
24151;SDS011;12311;50.866;4.332;2024-02-28T00:31:35;14.85;;;6.93;;
24151;SDS011;12311;50.866;4.332;2024-02-28T00:34:01;13.23;;;6.15;;
24151;SDS011;12311;50.866;4.332;2024-02-28T00:36:27;16.13;;;6.53;;
24151;SDS011;12311;50.866;4.332;2024-02-28T00:38:52;21.20;;;6.80;;
24151;SDS011;12311;50.866;4.332;2024-02-28T00:41:18;20.77;;;7.65;;
24151;SDS011;12311;50.866;4.332;2024-02-28T00:43:43;16.33;;;6.78;;
24151;SDS011;12311;50.866;4.332;2024-02-28T00:46:09;19.08;;;6.75;;
24151;SDS011;12311;50.866;4.332;2024-02-28T00:48:40;18.88;;;7.07;;
24151;SDS011;12311;50.866;4.332;2024-02-28T00:51:06;15.93;;;6.47;;
24151;SDS011;12311;50.866;4.332;2024-02-28T00:53:33;14.27;;;7.32;;
24151;SDS011;12311;50.866;4.332;2024-02-28T00:55:59;15.23;;;7.20;;
24151;SDS011;12311;50.866;4.332;2024-02-28T00:58:24;15.23;;;6.93;;
24151;SDS011;12311;50.866;4.332;2024-02-28T01:00:52;21.67;;;8.25;;
24151;SDS011;12311;50.866;4.332;2024-02-28T01:03:18;20.10;;;7.68;;
24151;SDS011;12311;50.866;4.332;2024-02-28T01:05:44;18.98;;;7.65;;
24151;SDS011;12311;50.866;4.332;2024-02-28T01:08:09;14.25;;;7.18;;
24151;SDS011;12311;50.866;4.332;2024-02-28T01:10:35;17.55;;;7.03;;
24151;SDS011;12311;50.866;4.332;2024-02-28T01:13:01;16.52;;;7.25;;
24151;SDS011;12311;50.866;4.332;2024-02-28T01:15:27;15.30;;;7.18;;
24151;SDS011;12311;50.866;4.332;2024-02-28T01:17:53;19.70;;;7.28;;
24151;SDS011;12311;50.866;4.332;2024-02-28T01:20:19;17.42;;;7.47;;
24151;SDS011;12311;50.866;4.332;2024-02-28T01:22:44;17.17;;;7.57;;
24151;SDS011;12311;50.866;4.332;2024-02-28T01:25:10;15.27;;;7.25;;
24151;SDS011;12311;50.866;4.332;2024-02-28T01:27:36;17.90;;;7.55;;
24151;SDS011;12311;50.866;4.332;2024-02-28T01:30:01;18.58;;;7.57;;
24151;SDS011;12311;50.866;4.332;2024-02-28T01:32:28;21.48;;;7.93;;
24151;SDS011;12311;50.866;4.332;2024-02-28T01:34:55;18.42;;;7.75;;
24151;SDS011;12311;50.866;4.332;2024-02-28T01:37:20;17.15;;;7.47;;
24151;SDS011;12311;50.866;4.332;2024-02-28T01:39:46;15.73;;;7.65;;
24151;SDS011;12311;50.866;4.332;2024-02-28T01:42:13;15.73;;;6.90;;
24151;SDS011;12311;50.866;4.332;2024-02-28T01:44:47;17.02;;;7.72;;
24151;SDS011;12311;50.866;4.332;2024-02-28T01:47:16;16.63;;;7.22;;
24151;SDS011;12311;50.866;4.332;2024-02-28T01:49:43;15.23;;;7.82;;
24151;SDS011;12311;50.866;4.332;2024-02-28T01:52:11;14.10;;;6.97;;
24151;SDS011;12311;50.866;4.332;2024-02-28T01:54:37;20.08;;;7.47;;
24151;SDS011;12311;50.866;4.332;2024-02-28T01:57:04;19.00;;;6.90;;
24151;SDS011;12311;50.866;4.332;2024-02-28T01:59:31;14.25;;;6.88;;
24151;SDS011;12311;50.866;4.332;2024-02-28T02:01:59;16.80;;;6.95;;
24151;SDS011;12311;50.866;4.332;2024-02-28T02:04:25;20.80;;;7.32;;
24151;SDS011;12311;50.866;4.332;2024-02-28T02:06:51;17.40;;;7.70;;
24151;SDS011;12311;50.866;4.332;2024-02-28T02:09:19;17.77;;;7.57;;
24151;SDS011;12311;50.866;4.332;2024-02-28T02:11:45;17.23;;;7.55;;
24151;SDS011;12311;50.866;4.332;2024-02-28T02:14:10;21.00;;;8.18;;
24151;SDS011;12311;50.866;4.332;2024-02-28T02:16:36;16.48;;;7.10;;
24151;SDS011;12311;50.866;4.332;2024-02-28T02:19:02;16.75;;;7.20;;
24151;SDS011;12311;50.866;4.332;2024-02-28T02:21:34;18.52;;;7.63;;
24151;SDS011;12311;50.866;4.332;2024-02-28T02:24:04;16.10;;;7.40;;
24151;SDS011;12311;50.866;4.332;2024-02-28T02:26:30;17.50;;;7.18;;
24151;SDS011;12311;50.866;4.332;2024-02-28T02:28:56;19.23;;;7.57;;
24151;SDS011;12311;50.866;4.332;2024-02-28T02:31:22;21.50;;;8.02;;
24151;SDS011;12311;50.866;4.332;2024-02-28T02:33:48;18.75;;;7.70;;
24151;SDS011;12311;50.866;4.332;2024-02-28T02:36:14;15.05;;;6.95;;
24151;SDS011;12311;50.866;4.332;2024-02-28T02:38:39;16.27;;;7.22;;
24151;SDS011;12311;50.866;4.332;2024-02-28T02:41:05;17.63;;;7.80;;
24151;SDS011;12311;50.866;4.332;2024-02-28T02:43:31;17.30;;;7.75;;
24151;SDS011;12311;50.866;4.332;2024-02-28T02:45:56;17.73;;;7.65;;
24151;SDS011;12311;50.866;4.332;2024-02-28T02:48:22;23.58;;;9.60;;
24151;SDS011;12311;50.866;4.332;2024-02-28T02:50:47;17.58;;;7.75;;
24151;SDS011;12311;50.866;4.332;2024-02-28T02:53:13;18.65;;;7.82;;
24151;SDS011;12311;50.866;4.332;2024-02-28T02:55:39;22.50;;;9.07;;
24151;SDS011;12311;50.866;4.332;2024-02-28T02:58:04;18.50;;;7.82;;
24151;SDS011;12311;50.866;4.332;2024-02-28T03:00:30;16.38;;;7.40;;
24151;SDS011;12311;50.866;4.332;2024-02-28T03:02:56;20.42;;;8.55;;
24151;SDS011;12311;50.866;4.332;2024-02-28T03:05:21;20.23;;;7.38;;
24151;SDS011;12311;50.866;4.332;2024-02-28T03:07:47;20.48;;;8.15;;
24151;SDS011;12311;50.866;4.332;2024-02-28T03:10:13;20.90;;;7.22;;
24151;SDS011;12311;50.866;4.332;2024-02-28T03:12:38;20.00;;;7.72;;
24151;SDS011;12311;50.866;4.332;2024-02-28T03:15:04;16.10;;;7.90;;
24151;SDS011;12311;50.866;4.332;2024-02-28T03:17:30;16.30;;;6.70;;
24151;SDS011;12311;50.866;4.332;2024-02-28T03:19:56;20.85;;;7.95;;
24151;SDS011;12311;50.866;4.332;2024-02-28T03:22:22;18.60;;;7.70;;
24151;SDS011;12311;50.866;4.332;2024-02-28T03:24:47;18.60;;;7.43;;
24151;SDS011;12311;50.866;4.332;2024-02-28T03:27:13;16.02;;;7.60;;
24151;SDS011;12311;50.866;4.332;2024-02-28T03:29:39;16.80;;;8.18;;
24151;SDS011;12311;50.866;4.332;2024-02-28T03:32:05;19.17;;;7.15;;
24151;SDS011;12311;50.866;4.332;2024-02-28T03:34:31;17.17;;;7.70;;
24151;SDS011;12311;50.866;4.332;2024-02-28T03:36:57;13.82;;;6.78;;
24151;SDS011;12311;50.866;4.332;2024-02-28T03:39:22;17.48;;;7.00;;
24151;SDS011;12311;50.866;4.332;2024-02-28T03:41:48;16.98;;;6.40;;
24151;SDS011;12311;50.866;4.332;2024-02-28T03:44:14;22.20;;;7.93;;
24151;SDS011;12311;50.866;4.332;2024-02-28T03:46:39;16.30;;;6.05;;
24151;SDS011;12311;50.866;4.332;2024-02-28T03:49:05;19.27;;;7.30;;
24151;SDS011;12311;50.866;4.332;2024-02-28T03:51:31;19.77;;;8.05;;
24151;SDS011;12311;50.866;4.332;2024-02-28T03:53:56;18.25;;;7.45;;
24151;SDS011;12311;50.866;4.332;2024-02-28T03:56:25;17.08;;;7.00;;
24151;SDS011;12311;50.866;4.332;2024-02-28T03:58:51;16.40;;;7.38;;
24151;SDS011;12311;50.866;4.332;2024-02-28T04:01:18;15.00;;;7.30;;
24151;SDS011;12311;50.866;4.332;2024-02-28T04:03:43;22.08;;;8.48;;
24151;SDS011;12311;50.866;4.332;2024-02-28T04:06:10;15.60;;;7.22;;
24151;SDS011;12311;50.866;4.332;2024-02-28T04:08:36;16.13;;;7.05;;
24151;SDS011;12311;50.866;4.332;2024-02-28T04:11:02;20.30;;;7.55;;
24151;SDS011;12311;50.866;4.332;2024-02-28T04:13:28;14.40;;;6.45;;
24151;SDS011;12311;50.866;4.332;2024-02-28T04:15:53;16.33;;;7.70;;
24151;SDS011;12311;50.866;4.332;2024-02-28T04:18:19;20.27;;;7.80;;
24151;SDS011;12311;50.866;4.332;2024-02-28T04:20:45;16.35;;;6.93;;
24151;SDS011;12311;50.866;4.332;2024-02-28T04:23:10;15.27;;;6.55;;
24151;SDS011;12311;50.866;4.332;2024-02-28T04:25:36;18.33;;;7.78;;
24151;SDS011;12311;50.866;4.332;2024-02-28T04:28:05;15.77;;;6.72;;
24151;SDS011;12311;50.866;4.332;2024-02-28T04:30:34;20.10;;;8.35;;
24151;SDS011;12311;50.866;4.332;2024-02-28T04:32:59;20.30;;;7.03;;
24151;SDS011;12311;50.866;4.332;2024-02-28T04:35:25;21.35;;;7.53;;
24151;SDS011;12311;50.866;4.332;2024-02-28T04:37:51;17.33;;;7.05;;
24151;SDS011;12311;50.866;4.332;2024-02-28T04:40:16;19.00;;;7.53;;
24151;SDS011;12311;50.866;4.332;2024-02-28T04:42:42;17.00;;;7.20;;
24151;SDS011;12311;50.866;4.332;2024-02-28T04:45:08;22.52;;;7.35;;
24151;SDS011;12311;50.866;4.332;2024-02-28T04:47:34;17.90;;;6.85;;
24151;SDS011;12311;50.866;4.332;2024-02-28T04:50:01;15.27;;;7.53;;
24151;SDS011;12311;50.866;4.332;2024-02-28T04:52:26;15.32;;;6.68;;
24151;SDS011;12311;50.866;4.332;2024-02-28T04:54:52;15.60;;;7.63;;
24151;SDS011;12311;50.866;4.332;2024-02-28T04:57:18;19.77;;;7.78;;
24151;SDS011;12311;50.866;4.332;2024-02-28T04:59:44;16.25;;;7.03;;
24151;SDS011;12311;50.866;4.332;2024-02-28T05:02:10;16.42;;;7.45;;
24151;SDS011;12311;50.866;4.332;2024-02-28T05:04:36;20.83;;;7.13;;
24151;SDS011;12311;50.866;4.332;2024-02-28T05:07:01;15.70;;;7.43;;
24151;SDS011;12311;50.866;4.332;2024-02-28T05:09:27;17.63;;;6.93;;
24151;SDS011;12311;50.866;4.332;2024-02-28T05:11:53;17.85;;;7.00;;
24151;SDS011;12311;50.866;4.332;2024-02-28T05:14:19;19.20;;;7.65;;
24151;SDS011;12311;50.866;4.332;2024-02-28T05:16:44;21.65;;;7.25;;
24151;SDS011;12311;50.866;4.332;2024-02-28T05:19:12;16.92;;;7.97;;
24151;SDS011;12311;50.866;4.332;2024-02-28T05:21:41;21.67;;;8.35;;
24151;SDS011;12311;50.866;4.332;2024-02-28T05:24:07;22.85;;;8.65;;
24151;SDS011;12311;50.866;4.332;2024-02-28T05:26:37;14.63;;;7.10;;
24151;SDS011;12311;50.866;4.332;2024-02-28T05:29:03;18.30;;;8.18;;
24151;SDS011;12311;50.866;4.332;2024-02-28T05:31:29;19.73;;;8.18;;
24151;SDS011;12311;50.866;4.332;2024-02-28T05:33:59;22.13;;;7.97;;
24151;SDS011;12311;50.866;4.332;2024-02-28T05:36:26;15.85;;;7.78;;
24151;SDS011;12311;50.866;4.332;2024-02-28T05:38:53;17.75;;;7.40;;
24151;SDS011;12311;50.866;4.332;2024-02-28T05:41:19;17.38;;;8.02;;
24151;SDS011;12311;50.866;4.332;2024-02-28T05:43:46;18.52;;;7.68;;
24151;SDS011;12311;50.866;4.332;2024-02-28T05:46:13;17.35;;;7.63;;
24151;SDS011;12311;50.866;4.332;2024-02-28T05:48:45;17.60;;;7.43;;
24151;SDS011;12311;50.866;4.332;2024-02-28T05:51:11;17.88;;;8.40;;
24151;SDS011;12311;50.866;4.332;2024-02-28T05:53:38;17.35;;;7.93;;
24151;SDS011;12311;50.866;4.332;2024-02-28T05:56:05;18.25;;;7.07;;
24151;SDS011;12311;50.866;4.332;2024-02-28T05:58:38;20.88;;;6.95;;
24151;SDS011;12311;50.866;4.332;2024-02-28T06:01:04;22.85;;;7.65;;
24151;SDS011;12311;50.866;4.332;2024-02-28T06:03:30;19.02;;;7.35;;
24151;SDS011;12311;50.866;4.332;2024-02-28T06:05:55;18.27;;;7.90;;
24151;SDS011;12311;50.866;4.332;2024-02-28T06:08:23;25.00;;;7.65;;
24151;SDS011;12311;50.866;4.332;2024-02-28T06:10:48;18.52;;;7.28;;
24151;SDS011;12311;50.866;4.332;2024-02-28T06:13:14;18.45;;;7.05;;
24151;SDS011;12311;50.866;4.332;2024-02-28T06:15:39;24.30;;;6.85;;
24151;SDS011;12311;50.866;4.332;2024-02-28T06:18:05;20.88;;;8.25;;
24151;SDS011;12311;50.866;4.332;2024-02-28T06:20:31;22.77;;;7.40;;
24151;SDS011;12311;50.866;4.332;2024-02-28T06:22:57;16.88;;;6.80;;
24151;SDS011;12311;50.866;4.332;2024-02-28T06:25:22;19.95;;;7.05;;
24151;SDS011;12311;50.866;4.332;2024-02-28T06:27:49;18.08;;;6.85;;
24151;SDS011;12311;50.866;4.332;2024-02-28T06:30:15;19.80;;;7.22;;
24151;SDS011;12311;50.866;4.332;2024-02-28T06:32:44;20.58;;;7.88;;
24151;SDS011;12311;50.866;4.332;2024-02-28T06:35:10;18.35;;;6.95;;
24151;SDS011;12311;50.866;4.332;2024-02-28T06:37:35;18.23;;;7.25;;
24151;SDS011;12311;50.866;4.332;2024-02-28T06:40:04;19.45;;;7.38;;
24151;SDS011;12311;50.866;4.332;2024-02-28T06:42:30;19.80;;;7.43;;
24151;SDS011;12311;50.866;4.332;2024-02-28T06:44:56;22.50;;;7.32;;
24151;SDS011;12311;50.866;4.332;2024-02-28T06:47:21;16.20;;;6.85;;
24151;SDS011;12311;50.866;4.332;2024-02-28T06:49:47;22.58;;;8.15;;
24151;SDS011;12311;50.866;4.332;2024-02-28T06:52:13;16.23;;;6.70;;
24151;SDS011;12311;50.866;4.332;2024-02-28T06:54:39;22.75;;;6.65;;
24151;SDS011;12311;50.866;4.332;2024-02-28T06:57:05;16.20;;;6.68;;
24151;SDS011;12311;50.866;4.332;2024-02-28T06:59:30;17.67;;;7.35;;
24151;SDS011;12311;50.866;4.332;2024-02-28T07:01:56;18.02;;;7.38;;
24151;SDS011;12311;50.866;4.332;2024-02-28T07:04:22;24.17;;;8.02;;
24151;SDS011;12311;50.866;4.332;2024-02-28T07:06:47;15.90;;;7.30;;
24151;SDS011;12311;50.866;4.332;2024-02-28T07:09:14;18.83;;;6.82;;
24151;SDS011;12311;50.866;4.332;2024-02-28T07:11:40;15.60;;;6.28;;
24151;SDS011;12311;50.866;4.332;2024-02-28T07:14:06;15.13;;;6.43;;
24151;SDS011;12311;50.866;4.332;2024-02-28T07:16:31;22.48;;;7.20;;
24151;SDS011;12311;50.866;4.332;2024-02-28T07:18:59;20.08;;;6.63;;
24151;SDS011;12311;50.866;4.332;2024-02-28T07:21:28;20.85;;;6.40;;
24151;SDS011;12311;50.866;4.332;2024-02-28T07:23:55;18.58;;;6.22;;
24151;SDS011;12311;50.866;4.332;2024-02-28T07:26:21;18.88;;;6.85;;
24151;SDS011;12311;50.866;4.332;2024-02-28T07:28:46;15.95;;;6.22;;
24151;SDS011;12311;50.866;4.332;2024-02-28T07:31:18;20.38;;;6.70;;
24151;SDS011;12311;50.866;4.332;2024-02-28T07:33:44;18.85;;;6.82;;
24151;SDS011;12311;50.866;4.332;2024-02-28T07:36:10;25.25;;;6.90;;
24151;SDS011;12311;50.866;4.332;2024-02-28T07:38:36;15.35;;;6.22;;
24151;SDS011;12311;50.866;4.332;2024-02-28T07:41:02;15.85;;;5.55;;
24151;SDS011;12311;50.866;4.332;2024-02-28T07:43:28;19.67;;;7.05;;
24151;SDS011;12311;50.866;4.332;2024-02-28T07:45:57;19.88;;;6.85;;
24151;SDS011;12311;50.866;4.332;2024-02-28T07:48:23;17.10;;;6.00;;
24151;SDS011;12311;50.866;4.332;2024-02-28T07:50:49;16.20;;;5.43;;
24151;SDS011;12311;50.866;4.332;2024-02-28T07:53:15;17.33;;;5.70;;
24151;SDS011;12311;50.866;4.332;2024-02-28T07:55:42;14.75;;;5.75;;
24151;SDS011;12311;50.866;4.332;2024-02-28T07:58:07;12.93;;;5.93;;
24151;SDS011;12311;50.866;4.332;2024-02-28T08:00:34;16.45;;;5.22;;
24151;SDS011;12311;50.866;4.332;2024-02-28T08:03:00;11.77;;;5.13;;
24151;SDS011;12311;50.866;4.332;2024-02-28T08:05:26;24.23;;;5.90;;
24151;SDS011;12311;50.866;4.332;2024-02-28T08:07:52;17.92;;;5.82;;
24151;SDS011;12311;50.866;4.332;2024-02-28T08:10:17;15.48;;;5.75;;
24151;SDS011;12311;50.866;4.332;2024-02-28T08:12:43;16.77;;;5.03;;
24151;SDS011;12311;50.866;4.332;2024-02-28T08:15:09;12.63;;;5.43;;
24151;SDS011;12311;50.866;4.332;2024-02-28T08:17:35;13.02;;;4.90;;
24151;SDS011;12311;50.866;4.332;2024-02-28T08:20:02;11.98;;;4.93;;
24151;SDS011;12311;50.866;4.332;2024-02-28T08:22:30;20.13;;;5.57;;
24151;SDS011;12311;50.866;4.332;2024-02-28T08:24:56;12.30;;;4.70;;
24151;SDS011;12311;50.866;4.332;2024-02-28T08:27:21;15.38;;;4.45;;
24151;SDS011;12311;50.866;4.332;2024-02-28T08:29:48;15.07;;;4.80;;
24151;SDS011;12311;50.866;4.332;2024-02-28T08:32:14;9.77;;;4.70;;
24151;SDS011;12311;50.866;4.332;2024-02-28T08:34:43;20.70;;;4.60;;
24151;SDS011;12311;50.866;4.332;2024-02-28T08:37:10;17.75;;;4.65;;
24151;SDS011;12311;50.866;4.332;2024-02-28T08:39:36;13.85;;;4.80;;
24151;SDS011;12311;50.866;4.332;2024-02-28T08:42:01;18.92;;;5.70;;
24151;SDS011;12311;50.866;4.332;2024-02-28T08:44:27;13.23;;;4.82;;
24151;SDS011;12311;50.866;4.332;2024-02-28T08:46:52;12.38;;;4.35;;
24151;SDS011;12311;50.866;4.332;2024-02-28T08:49:18;13.65;;;5.53;;
24151;SDS011;12311;50.866;4.332;2024-02-28T08:51:44;17.00;;;5.30;;
24151;SDS011;12311;50.866;4.332;2024-02-28T08:54:09;14.82;;;5.65;;
24151;SDS011;12311;50.866;4.332;2024-02-28T08:56:35;15.93;;;6.00;;
24151;SDS011;12311;50.866;4.332;2024-02-28T08:59:01;12.88;;;5.05;;
24151;SDS011;12311;50.866;4.332;2024-02-28T09:01:26;17.88;;;5.70;;
24151;SDS011;12311;50.866;4.332;2024-02-28T09:03:52;20.65;;;6.30;;
24151;SDS011;12311;50.866;4.332;2024-02-28T09:06:17;19.17;;;6.70;;
24151;SDS011;12311;50.866;4.332;2024-02-28T09:08:43;17.13;;;6.38;;
24151;SDS011;12311;50.866;4.332;2024-02-28T09:11:09;11.98;;;5.10;;
24151;SDS011;12311;50.866;4.332;2024-02-28T09:13:34;15.90;;;5.50;;
24151;SDS011;12311;50.866;4.332;2024-02-28T09:16:04;16.63;;;5.90;;
24151;SDS011;12311;50.866;4.332;2024-02-28T09:18:30;17.92;;;6.07;;
24151;SDS011;12311;50.866;4.332;2024-02-28T09:20:55;17.45;;;5.57;;
24151;SDS011;12311;50.866;4.332;2024-02-28T09:23:21;21.00;;;6.13;;
24151;SDS011;12311;50.866;4.332;2024-02-28T09:25:46;19.40;;;5.68;;
24151;SDS011;12311;50.866;4.332;2024-02-28T09:28:12;16.17;;;5.70;;
24151;SDS011;12311;50.866;4.332;2024-02-28T09:30:41;20.88;;;5.70;;
24151;SDS011;12311;50.866;4.332;2024-02-28T09:33:07;14.95;;;5.25;;
24151;SDS011;12311;50.866;4.332;2024-02-28T09:35:34;16.30;;;5.78;;
24151;SDS011;12311;50.866;4.332;2024-02-28T09:38:01;14.13;;;5.20;;
24151;SDS011;12311;50.866;4.332;2024-02-28T09:40:27;11.93;;;5.45;;
24151;SDS011;12311;50.866;4.332;2024-02-28T09:42:53;17.52;;;5.72;;
24151;SDS011;12311;50.866;4.332;2024-02-28T09:45:26;15.65;;;5.57;;
24151;SDS011;12311;50.866;4.332;2024-02-28T09:47:55;14.48;;;6.05;;
24151;SDS011;12311;50.866;4.332;2024-02-28T09:50:25;16.05;;;5.75;;
24151;SDS011;12311;50.866;4.332;2024-02-28T09:52:52;15.10;;;5.53;;
24151;SDS011;12311;50.866;4.332;2024-02-28T09:55:18;13.95;;;5.47;;
24151;SDS011;12311;50.866;4.332;2024-02-28T09:57:45;14.63;;;5.38;;
24151;SDS011;12311;50.866;4.332;2024-02-28T10:00:14;15.55;;;6.07;;
24151;SDS011;12311;50.866;4.332;2024-02-28T10:02:44;11.77;;;4.47;;
24151;SDS011;12311;50.866;4.332;2024-02-28T10:05:12;16.83;;;6.10;;
24151;SDS011;12311;50.866;4.332;2024-02-28T10:07:38;22.10;;;6.28;;
24151;SDS011;12311;50.866;4.332;2024-02-28T10:10:05;23.60;;;6.43;;
24151;SDS011;12311;50.866;4.332;2024-02-28T10:12:33;16.90;;;6.30;;
24151;SDS011;12311;50.866;4.332;2024-02-28T10:14:59;16.05;;;6.00;;
24151;SDS011;12311;50.866;4.332;2024-02-28T10:17:26;22.17;;;7.18;;
24151;SDS011;12311;50.866;4.332;2024-02-28T10:19:52;23.88;;;6.35;;
24151;SDS011;12311;50.866;4.332;2024-02-28T10:22:17;20.67;;;6.53;;
24151;SDS011;12311;50.866;4.332;2024-02-28T10:24:43;22.83;;;6.90;;
24151;SDS011;12311;50.866;4.332;2024-02-28T10:27:09;22.80;;;6.97;;
24151;SDS011;12311;50.866;4.332;2024-02-28T10:29:35;17.60;;;6.25;;
24151;SDS011;12311;50.866;4.332;2024-02-28T10:32:01;15.43;;;5.68;;
24151;SDS011;12311;50.866;4.332;2024-02-28T10:34:30;19.17;;;5.38;;
24151;SDS011;12311;50.866;4.332;2024-02-28T10:36:58;16.65;;;5.45;;
24151;SDS011;12311;50.866;4.332;2024-02-28T10:39:24;12.98;;;4.90;;
24151;SDS011;12311;50.866;4.332;2024-02-28T10:41:51;12.57;;;5.32;;
24151;SDS011;12311;50.866;4.332;2024-02-28T10:44:18;14.40;;;5.05;;
24151;SDS011;12311;50.866;4.332;2024-02-28T10:46:48;14.90;;;4.82;;
24151;SDS011;12311;50.866;4.332;2024-02-28T10:49:15;11.57;;;4.72;;
24151;SDS011;12311;50.866;4.332;2024-02-28T10:51:41;13.95;;;5.22;;
24151;SDS011;12311;50.866;4.332;2024-02-28T10:54:11;9.85;;;4.57;;
24151;SDS011;12311;50.866;4.332;2024-02-28T10:56:39;9.95;;;5.25;;
24151;SDS011;12311;50.866;4.332;2024-02-28T10:59:09;10.98;;;4.85;;
24151;SDS011;12311;50.866;4.332;2024-02-28T11:04:06;10.43;;;4.47;;
24151;SDS011;12311;50.866;4.332;2024-02-28T11:06:32;12.35;;;5.07;;
24151;SDS011;12311;50.866;4.332;2024-02-28T11:09:02;14.73;;;5.55;;
24151;SDS011;12311;50.866;4.332;2024-02-28T11:11:31;10.98;;;4.97;;
24151;SDS011;12311;50.866;4.332;2024-02-28T11:13:58;12.40;;;4.82;;
24151;SDS011;12311;50.866;4.332;2024-02-28T11:18:53;10.20;;;4.30;;
24151;SDS011;12311;50.866;4.332;2024-02-28T11:21:19;9.38;;;3.95;;
24151;SDS011;12311;50.866;4.332;2024-02-28T11:23:49;9.10;;;3.90;;
24151;SDS011;12311;50.866;4.332;2024-02-28T11:26:15;12.27;;;4.47;;
24151;SDS011;12311;50.866;4.332;2024-02-28T11:28:41;9.93;;;4.10;;
24151;SDS011;12311;50.866;4.332;2024-02-28T11:31:07;15.05;;;4.65;;
24151;SDS011;12311;50.866;4.332;2024-02-28T11:33:33;9.93;;;4.25;;
24151;SDS011;12311;50.866;4.332;2024-02-28T11:35:59;7.78;;;3.70;;
24151;SDS011;12311;50.866;4.332;2024-02-28T11:38:27;8.57;;;3.45;;
24151;SDS011;12311;50.866;4.332;2024-02-28T11:40:53;9.48;;;3.92;;
24151;SDS011;12311;50.866;4.332;2024-02-28T11:43:20;12.43;;;3.33;;
24151;SDS011;12311;50.866;4.332;2024-02-28T11:45:46;9.15;;;3.83;;
24151;SDS011;12311;50.866;4.332;2024-02-28T11:48:13;7.25;;;3.47;;
24151;SDS011;12311;50.866;4.332;2024-02-28T11:50:39;5.70;;;3.13;;
24151;SDS011;12311;50.866;4.332;2024-02-28T11:53:08;6.45;;;3.15;;
24151;SDS011;12311;50.866;4.332;2024-02-28T11:55:34;6.13;;;3.40;;
24151;SDS011;12311;50.866;4.332;2024-02-28T11:57:59;6.88;;;2.90;;
24151;SDS011;12311;50.866;4.332;2024-02-28T12:00:25;7.25;;;3.13;;
24151;SDS011;12311;50.866;4.332;2024-02-28T12:02:51;7.63;;;3.47;;
24151;SDS011;12311;50.866;4.332;2024-02-28T12:05:21;8.63;;;3.83;;
24151;SDS011;12311;50.866;4.332;2024-02-28T12:07:47;7.78;;;3.60;;
24151;SDS011;12311;50.866;4.332;2024-02-28T12:10:13;6.70;;;2.90;;
24151;SDS011;12311;50.866;4.332;2024-02-28T12:12:39;9.30;;;2.90;;
24151;SDS011;12311;50.866;4.332;2024-02-28T12:15:06;9.45;;;3.30;;
24151;SDS011;12311;50.866;4.332;2024-02-28T12:17:32;6.00;;;2.97;;
24151;SDS011;12311;50.866;4.332;2024-02-28T12:20:01;9.93;;;3.30;;
24151;SDS011;12311;50.866;4.332;2024-02-28T12:22:26;6.07;;;3.05;;
24151;SDS011;12311;50.866;4.332;2024-02-28T12:24:52;8.02;;;3.05;;
24151;SDS011;12311;50.866;4.332;2024-02-28T12:27:18;7.15;;;2.97;;
24151;SDS011;12311;50.866;4.332;2024-02-28T12:29:44;5.65;;;2.70;;
24151;SDS011;12311;50.866;4.332;2024-02-28T12:32:10;7.18;;;2.63;;
24151;SDS011;12311;50.866;4.332;2024-02-28T12:34:37;6.47;;;3.10;;
24151;SDS011;12311;50.866;4.332;2024-02-28T12:37:02;6.72;;;3.22;;
24151;SDS011;12311;50.866;4.332;2024-02-28T12:39:30;5.75;;;2.90;;
24151;SDS011;12311;50.866;4.332;2024-02-28T12:41:57;9.30;;;3.28;;
24151;SDS011;12311;50.866;4.332;2024-02-28T12:44:22;8.00;;;3.38;;
24151;SDS011;12311;50.866;4.332;2024-02-28T12:46:48;7.18;;;3.05;;
24151;SDS011;12311;50.866;4.332;2024-02-28T12:49:14;10.07;;;3.22;;
24151;SDS011;12311;50.866;4.332;2024-02-28T12:51:40;6.82;;;3.67;;
24151;SDS011;12311;50.866;4.332;2024-02-28T12:54:08;6.50;;;3.33;;
24151;SDS011;12311;50.866;4.332;2024-02-28T12:56:37;7.13;;;3.47;;
24151;SDS011;12311;50.866;4.332;2024-02-28T12:59:05;9.85;;;3.53;;
24151;SDS011;12311;50.866;4.332;2024-02-28T13:01:32;6.45;;;3.22;;
24151;SDS011;12311;50.866;4.332;2024-02-28T13:03:58;7.82;;;3.28;;
24151;SDS011;12311;50.866;4.332;2024-02-28T13:06:24;7.18;;;3.28;;
24151;SDS011;12311;50.866;4.332;2024-02-28T13:08:49;8.27;;;4.38;;
24151;SDS011;12311;50.866;4.332;2024-02-28T13:11:17;8.77;;;3.60;;
24151;SDS011;12311;50.866;4.332;2024-02-28T13:13:47;9.80;;;4.10;;
24151;SDS011;12311;50.866;4.332;2024-02-28T13:16:19;6.38;;;3.03;;
24151;SDS011;12311;50.866;4.332;2024-02-28T13:18:47;8.27;;;3.83;;
24151;SDS011;12311;50.866;4.332;2024-02-28T13:21:12;7.05;;;3.45;;
24151;SDS011;12311;50.866;4.332;2024-02-28T13:23:38;9.77;;;4.03;;
24151;SDS011;12311;50.866;4.332;2024-02-28T13:26:04;10.98;;;3.90;;
24151;SDS011;12311;50.866;4.332;2024-02-28T13:28:30;9.30;;;4.07;;
24151;SDS011;12311;50.866;4.332;2024-02-28T13:30:57;7.60;;;2.90;;
24151;SDS011;12311;50.866;4.332;2024-02-28T13:33:24;6.75;;;3.03;;
24151;SDS011;12311;50.866;4.332;2024-02-28T13:35:49;6.28;;;3.17;;
24151;SDS011;12311;50.866;4.332;2024-02-28T13:38:15;7.43;;;3.22;;
24151;SDS011;12311;50.866;4.332;2024-02-28T13:40:41;8.07;;;3.65;;
24151;SDS011;12311;50.866;4.332;2024-02-28T13:43:09;7.22;;;3.30;;
24151;SDS011;12311;50.866;4.332;2024-02-28T13:45:35;8.45;;;3.28;;
24151;SDS011;12311;50.866;4.332;2024-02-28T13:48:02;8.60;;;3.38;;
24151;SDS011;12311;50.866;4.332;2024-02-28T13:50:29;7.93;;;3.40;;
24151;SDS011;12311;50.866;4.332;2024-02-28T13:52:57;8.82;;;3.05;;
24151;SDS011;12311;50.866;4.332;2024-02-28T13:55:23;8.07;;;3.35;;
24151;SDS011;12311;50.866;4.332;2024-02-28T13:57:49;6.68;;;3.22;;
24151;SDS011;12311;50.866;4.332;2024-02-28T14:00:14;8.65;;;3.80;;
24151;SDS011;12311;50.866;4.332;2024-02-28T14:02:40;11.50;;;3.55;;
24151;SDS011;12311;50.866;4.332;2024-02-28T14:05:06;11.45;;;3.63;;
24151;SDS011;12311;50.866;4.332;2024-02-28T14:07:34;8.38;;;3.60;;
24151;SDS011;12311;50.866;4.332;2024-02-28T14:10:02;10.02;;;4.70;;
24151;SDS011;12311;50.866;4.332;2024-02-28T14:12:29;7.47;;;3.33;;
24151;SDS011;12311;50.866;4.332;2024-02-28T14:14:54;8.32;;;2.75;;
24151;SDS011;12311;50.866;4.332;2024-02-28T14:17:20;5.93;;;2.75;;
24151;SDS011;12311;50.866;4.332;2024-02-28T14:19:45;6.75;;;2.95;;
24151;SDS011;12311;50.866;4.332;2024-02-28T14:22:13;8.95;;;3.42;;
24151;SDS011;12311;50.866;4.332;2024-02-28T14:24:39;8.25;;;2.92;;
24151;SDS011;12311;50.866;4.332;2024-02-28T14:27:05;7.60;;;3.08;;
24151;SDS011;12311;50.866;4.332;2024-02-28T14:29:30;7.68;;;2.72;;
24151;SDS011;12311;50.866;4.332;2024-02-28T14:31:57;7.70;;;3.75;;
24151;SDS011;12311;50.866;4.332;2024-02-28T14:34:22;7.72;;;3.90;;
24151;SDS011;12311;50.866;4.332;2024-02-28T14:36:48;9.15;;;3.45;;